sensor_id;sensor_type;location;lat;lon;timestamp;temperature;humidity
12477;DHT22;6303;51.504;6.300;2023-04-06T00:00:45;21.50;44.50
12477;DHT22;6303;51.504;6.300;2023-04-06T00:03:12;21.50;44.50
12477;DHT22;6303;51.504;6.300;2023-04-06T00:05:39;21.50;45.10
12477;DHT22;6303;51.504;6.300;2023-04-06T00:08:07;21.40;44.50
12477;DHT22;6303;51.504;6.300;2023-04-06T00:10:35;21.40;44.50
12477;DHT22;6303;51.504;6.300;2023-04-06T00:13:02;21.40;44.60
12477;DHT22;6303;51.504;6.300;2023-04-06T00:15:29;21.40;44.60
12477;DHT22;6303;51.504;6.300;2023-04-06T00:17:56;21.40;44.60
12477;DHT22;6303;51.504;6.300;2023-04-06T00:20:23;21.40;44.50
12477;DHT22;6303;51.504;6.300;2023-04-06T00:22:50;21.40;44.60
12477;DHT22;6303;51.504;6.300;2023-04-06T00:25:19;21.40;44.60
12477;DHT22;6303;51.504;6.300;2023-04-06T00:27:46;21.40;44.60
12477;DHT22;6303;51.504;6.300;2023-04-06T00:30:13;21.40;44.60
12477;DHT22;6303;51.504;6.300;2023-04-06T00:32:41;21.40;44.60
12477;DHT22;6303;51.504;6.300;2023-04-06T00:35:09;21.30;44.50
12477;DHT22;6303;51.504;6.300;2023-04-06T00:37:36;21.30;44.60
12477;DHT22;6303;51.504;6.300;2023-04-06T00:40:03;21.30;44.60
12477;DHT22;6303;51.504;6.300;2023-04-06T00:42:32;21.30;44.60
12477;DHT22;6303;51.504;6.300;2023-04-06T00:45:00;21.30;44.60
12477;DHT22;6303;51.504;6.300;2023-04-06T00:47:28;21.30;44.60
12477;DHT22;6303;51.504;6.300;2023-04-06T00:49:56;21.30;44.60
12477;DHT22;6303;51.504;6.300;2023-04-06T00:52:23;21.30;44.60
12477;DHT22;6303;51.504;6.300;2023-04-06T00:54:52;21.30;44.60
12477;DHT22;6303;51.504;6.300;2023-04-06T00:57:20;21.30;44.70
12477;DHT22;6303;51.504;6.300;2023-04-06T00:59:54;21.30;44.70
12477;DHT22;6303;51.504;6.300;2023-04-06T01:02:22;21.20;44.70
12477;DHT22;6303;51.504;6.300;2023-04-06T01:04:52;21.20;44.70
12477;DHT22;6303;51.504;6.300;2023-04-06T01:07:31;21.20;44.60
12477;DHT22;6303;51.504;6.300;2023-04-06T01:10:09;21.30;44.70
12477;DHT22;6303;51.504;6.300;2023-04-06T01:12:37;21.20;44.70
12477;DHT22;6303;51.504;6.300;2023-04-06T01:15:11;21.20;44.70
12477;DHT22;6303;51.504;6.300;2023-04-06T01:17:42;21.20;44.70
12477;DHT22;6303;51.504;6.300;2023-04-06T01:20:13;21.20;44.70
12477;DHT22;6303;51.504;6.300;2023-04-06T01:22:42;21.20;44.70
12477;DHT22;6303;51.504;6.300;2023-04-06T01:25:11;21.10;44.60
12477;DHT22;6303;51.504;6.300;2023-04-06T01:28:01;21.20;44.70
12477;DHT22;6303;51.504;6.300;2023-04-06T01:30:46;21.20;44.70
12477;DHT22;6303;51.504;6.300;2023-04-06T01:33:26;21.20;44.70
12477;DHT22;6303;51.504;6.300;2023-04-06T01:36:04;21.10;44.70
12477;DHT22;6303;51.504;6.300;2023-04-06T01:38:33;21.10;44.70
12477;DHT22;6303;51.504;6.300;2023-04-06T01:41:01;21.10;44.60
12477;DHT22;6303;51.504;6.300;2023-04-06T01:43:34;21.10;44.60
12477;DHT22;6303;51.504;6.300;2023-04-06T01:46:06;21.10;44.70
12477;DHT22;6303;51.504;6.300;2023-04-06T01:48:36;21.10;44.70
12477;DHT22;6303;51.504;6.300;2023-04-06T01:51:13;21.10;44.70
12477;DHT22;6303;51.504;6.300;2023-04-06T01:53:55;21.10;44.70
12477;DHT22;6303;51.504;6.300;2023-04-06T01:56:30;21.10;44.70
12477;DHT22;6303;51.504;6.300;2023-04-06T01:59:03;21.10;44.70
12477;DHT22;6303;51.504;6.300;2023-04-06T02:01:36;21.10;44.70
12477;DHT22;6303;51.504;6.300;2023-04-06T02:04:04;21.10;44.70
12477;DHT22;6303;51.504;6.300;2023-04-06T02:06:32;21.10;44.70
12477;DHT22;6303;51.504;6.300;2023-04-06T02:09:04;21.10;44.70
12477;DHT22;6303;51.504;6.300;2023-04-06T02:11:31;21.10;44.80
12477;DHT22;6303;51.504;6.300;2023-04-06T02:13:58;21.10;44.70
12477;DHT22;6303;51.504;6.300;2023-04-06T02:16:29;21.10;44.70
12477;DHT22;6303;51.504;6.300;2023-04-06T02:18:56;21.00;44.70
12477;DHT22;6303;51.504;6.300;2023-04-06T02:21:23;21.00;44.80
12477;DHT22;6303;51.504;6.300;2023-04-06T02:23:50;21.00;44.80
12477;DHT22;6303;51.504;6.300;2023-04-06T02:26:18;21.00;44.70
12477;DHT22;6303;51.504;6.300;2023-04-06T02:28:46;21.00;44.70
12477;DHT22;6303;51.504;6.300;2023-04-06T02:31:13;21.00;44.70
12477;DHT22;6303;51.504;6.300;2023-04-06T02:33:42;21.00;45.40
12477;DHT22;6303;51.504;6.300;2023-04-06T02:36:11;21.00;44.80
12477;DHT22;6303;51.504;6.300;2023-04-06T02:38:38;21.00;44.70
12477;DHT22;6303;51.504;6.300;2023-04-06T02:41:05;21.00;44.80
12477;DHT22;6303;51.504;6.300;2023-04-06T02:43:33;21.00;44.80
12477;DHT22;6303;51.504;6.300;2023-04-06T02:46:06;21.00;44.80
12477;DHT22;6303;51.504;6.300;2023-04-06T02:48:37;21.00;44.80
12477;DHT22;6303;51.504;6.300;2023-04-06T02:51:04;21.00;44.70
12477;DHT22;6303;51.504;6.300;2023-04-06T02:53:32;21.00;44.70
12477;DHT22;6303;51.504;6.300;2023-04-06T02:55:59;21.00;44.80
12477;DHT22;6303;51.504;6.300;2023-04-06T02:58:37;21.00;44.80
12477;DHT22;6303;51.504;6.300;2023-04-06T03:01:04;21.00;44.80
12477;DHT22;6303;51.504;6.300;2023-04-06T03:03:31;21.00;44.80
12477;DHT22;6303;51.504;6.300;2023-04-06T03:05:58;21.00;44.80
12477;DHT22;6303;51.504;6.300;2023-04-06T03:08:29;21.00;44.70
12477;DHT22;6303;51.504;6.300;2023-04-06T03:10:56;21.00;44.70
12477;DHT22;6303;51.504;6.300;2023-04-06T03:13:31;20.90;44.70
12477;DHT22;6303;51.504;6.300;2023-04-06T03:15:59;20.90;44.70
12477;DHT22;6303;51.504;6.300;2023-04-06T03:18:27;20.90;44.70
12477;DHT22;6303;51.504;6.300;2023-04-06T03:20:55;20.90;44.80
12477;DHT22;6303;51.504;6.300;2023-04-06T03:23:32;20.90;44.70
12477;DHT22;6303;51.504;6.300;2023-04-06T03:26:01;20.90;44.70
12477;DHT22;6303;51.504;6.300;2023-04-06T03:28:29;20.90;44.70
12477;DHT22;6303;51.504;6.300;2023-04-06T03:31:01;20.90;44.70
12477;DHT22;6303;51.504;6.300;2023-04-06T03:33:46;20.90;44.70
12477;DHT22;6303;51.504;6.300;2023-04-06T03:36:20;20.90;44.70
12477;DHT22;6303;51.504;6.300;2023-04-06T03:38:47;20.90;44.70
12477;DHT22;6303;51.504;6.300;2023-04-06T03:41:15;20.90;44.70
12477;DHT22;6303;51.504;6.300;2023-04-06T03:43:50;20.90;44.70
12477;DHT22;6303;51.504;6.300;2023-04-06T03:46:19;20.90;44.70
12477;DHT22;6303;51.504;6.300;2023-04-06T03:48:49;20.90;44.70
12477;DHT22;6303;51.504;6.300;2023-04-06T03:51:18;20.90;44.70
12477;DHT22;6303;51.504;6.300;2023-04-06T03:53:47;20.90;44.70
12477;DHT22;6303;51.504;6.300;2023-04-06T03:56:14;20.90;44.70
12477;DHT22;6303;51.504;6.300;2023-04-06T03:58:41;20.90;44.60
12477;DHT22;6303;51.504;6.300;2023-04-06T04:01:10;20.80;44.60
12477;DHT22;6303;51.504;6.300;2023-04-06T04:03:38;20.80;44.50
12477;DHT22;6303;51.504;6.300;2023-04-06T04:06:05;20.80;44.50
12477;DHT22;6303;51.504;6.300;2023-04-06T04:08:33;20.80;44.50
12477;DHT22;6303;51.504;6.300;2023-04-06T04:11:01;20.80;44.50
12477;DHT22;6303;51.504;6.300;2023-04-06T04:13:28;20.80;44.50
12477;DHT22;6303;51.504;6.300;2023-04-06T04:15:55;20.80;44.50
12477;DHT22;6303;51.504;6.300;2023-04-06T04:18:22;20.80;44.50
12477;DHT22;6303;51.504;6.300;2023-04-06T04:20:51;20.80;44.50
12477;DHT22;6303;51.504;6.300;2023-04-06T04:23:20;20.80;44.50
12477;DHT22;6303;51.504;6.300;2023-04-06T04:25:48;20.80;44.40
12477;DHT22;6303;51.504;6.300;2023-04-06T04:28:15;20.80;44.50
12477;DHT22;6303;51.504;6.300;2023-04-06T04:30:43;20.80;44.60
12477;DHT22;6303;51.504;6.300;2023-04-06T04:33:11;20.80;44.50
12477;DHT22;6303;51.504;6.300;2023-04-06T04:35:40;20.80;44.50
12477;DHT22;6303;51.504;6.300;2023-04-06T04:38:11;20.80;44.60
12477;DHT22;6303;51.504;6.300;2023-04-06T04:40:41;21.00;44.60
12477;DHT22;6303;51.504;6.300;2023-04-06T04:43:11;20.80;44.60
12477;DHT22;6303;51.504;6.300;2023-04-06T04:45:38;20.70;44.50
12477;DHT22;6303;51.504;6.300;2023-04-06T04:48:24;20.80;44.50
12477;DHT22;6303;51.504;6.300;2023-04-06T04:50:56;20.70;44.50
12477;DHT22;6303;51.504;6.300;2023-04-06T04:53:29;20.70;44.50
12477;DHT22;6303;51.504;6.300;2023-04-06T04:56:02;20.70;44.60
12477;DHT22;6303;51.504;6.300;2023-04-06T04:58:29;20.70;44.60
12477;DHT22;6303;51.504;6.300;2023-04-06T05:00:58;20.70;44.60
12477;DHT22;6303;51.504;6.300;2023-04-06T05:03:26;20.80;44.60
12477;DHT22;6303;51.504;6.300;2023-04-06T05:06:05;20.80;44.60
12477;DHT22;6303;51.504;6.300;2023-04-06T05:08:37;20.80;44.60
12477;DHT22;6303;51.504;6.300;2023-04-06T05:11:05;20.80;44.50
12477;DHT22;6303;51.504;6.300;2023-04-06T05:13:36;20.80;44.50
12477;DHT22;6303;51.504;6.300;2023-04-06T05:16:10;20.80;44.50
12477;DHT22;6303;51.504;6.300;2023-04-06T05:18:38;20.80;44.50
12477;DHT22;6303;51.504;6.300;2023-04-06T05:21:06;20.80;44.40
12477;DHT22;6303;51.504;6.300;2023-04-06T05:23:54;20.80;44.40
12477;DHT22;6303;51.504;6.300;2023-04-06T05:26:21;20.80;44.30
12477;DHT22;6303;51.504;6.300;2023-04-06T05:28:52;20.80;44.20
12477;DHT22;6303;51.504;6.300;2023-04-06T05:31:20;21.10;44.30
12477;DHT22;6303;51.504;6.300;2023-04-06T05:33:50;20.90;44.20
12477;DHT22;6303;51.504;6.300;2023-04-06T05:36:26;20.90;44.10
12477;DHT22;6303;51.504;6.300;2023-04-06T05:38:56;20.90;44.10
12477;DHT22;6303;51.504;6.300;2023-04-06T05:41:35;20.90;44.10
12477;DHT22;6303;51.504;6.300;2023-04-06T05:44:02;21.00;44.10
12477;DHT22;6303;51.504;6.300;2023-04-06T05:46:30;21.00;44.00
12477;DHT22;6303;51.504;6.300;2023-04-06T05:48:59;21.00;43.90
12477;DHT22;6303;51.504;6.300;2023-04-06T05:51:29;21.00;43.70
12477;DHT22;6303;51.504;6.300;2023-04-06T05:53:58;21.00;43.60
12477;DHT22;6303;51.504;6.300;2023-04-06T05:56:26;21.10;43.60
12477;DHT22;6303;51.504;6.300;2023-04-06T05:58:55;21.10;43.40
12477;DHT22;6303;51.504;6.300;2023-04-06T06:01:27;21.20;43.40
12477;DHT22;6303;51.504;6.300;2023-04-06T06:03:54;21.20;43.30
12477;DHT22;6303;51.504;6.300;2023-04-06T06:06:27;21.20;43.20
12477;DHT22;6303;51.504;6.300;2023-04-06T06:09:15;21.30;43.10
12477;DHT22;6303;51.504;6.300;2023-04-06T06:11:52;21.30;43.10
12477;DHT22;6303;51.504;6.300;2023-04-06T06:14:23;21.30;43.00
12477;DHT22;6303;51.504;6.300;2023-04-06T06:16:50;21.40;42.80
12477;DHT22;6303;51.504;6.300;2023-04-06T06:19:18;21.50;42.80
12477;DHT22;6303;51.504;6.300;2023-04-06T06:21:45;21.50;42.80
12477;DHT22;6303;51.504;6.300;2023-04-06T06:24:12;21.60;42.80
12477;DHT22;6303;51.504;6.300;2023-04-06T06:26:41;21.70;42.70
12477;DHT22;6303;51.504;6.300;2023-04-06T06:29:10;21.80;42.50
12477;DHT22;6303;51.504;6.300;2023-04-06T06:31:38;21.80;42.30
12477;DHT22;6303;51.504;6.300;2023-04-06T06:34:06;21.90;42.30
12477;DHT22;6303;51.504;6.300;2023-04-06T06:36:35;21.90;42.70
12477;DHT22;6303;51.504;6.300;2023-04-06T06:39:05;22.00;42.20
12477;DHT22;6303;51.504;6.300;2023-04-06T06:41:32;22.00;42.00
12477;DHT22;6303;51.504;6.300;2023-04-06T06:44:01;22.10;42.10
12477;DHT22;6303;51.504;6.300;2023-04-06T06:46:28;22.10;42.00
12477;DHT22;6303;51.504;6.300;2023-04-06T06:48:55;22.10;41.80
12477;DHT22;6303;51.504;6.300;2023-04-06T06:51:22;22.20;41.90
12477;DHT22;6303;51.504;6.300;2023-04-06T06:53:49;22.20;41.80
12477;DHT22;6303;51.504;6.300;2023-04-06T06:56:16;22.30;41.80
12477;DHT22;6303;51.504;6.300;2023-04-06T06:58:43;22.30;41.80
12477;DHT22;6303;51.504;6.300;2023-04-06T07:01:12;22.30;41.80
12477;DHT22;6303;51.504;6.300;2023-04-06T07:03:39;22.30;41.80
12477;DHT22;6303;51.504;6.300;2023-04-06T07:06:06;22.40;41.70
12477;DHT22;6303;51.504;6.300;2023-04-06T07:08:33;22.40;41.60
12477;DHT22;6303;51.504;6.300;2023-04-06T07:11:00;22.50;41.60
12477;DHT22;6303;51.504;6.300;2023-04-06T07:13:27;22.50;41.50
12477;DHT22;6303;51.504;6.300;2023-04-06T07:15:57;22.50;41.40
12477;DHT22;6303;51.504;6.300;2023-04-06T07:18:26;22.60;41.50
12477;DHT22;6303;51.504;6.300;2023-04-06T07:20:53;22.60;41.50
12477;DHT22;6303;51.504;6.300;2023-04-06T07:23:20;22.60;41.50
12477;DHT22;6303;51.504;6.300;2023-04-06T07:25:47;22.60;41.40
12477;DHT22;6303;51.504;6.300;2023-04-06T07:28:16;22.60;41.40
12477;DHT22;6303;51.504;6.300;2023-04-06T07:30:43;22.50;41.40
12477;DHT22;6303;51.504;6.300;2023-04-06T07:33:11;22.60;41.50
12477;DHT22;6303;51.504;6.300;2023-04-06T07:35:41;22.50;41.40
12477;DHT22;6303;51.504;6.300;2023-04-06T07:38:09;22.60;41.50
12477;DHT22;6303;51.504;6.300;2023-04-06T07:40:37;22.60;41.50
12477;DHT22;6303;51.504;6.300;2023-04-06T07:43:04;22.60;41.30
12477;DHT22;6303;51.504;6.300;2023-04-06T07:45:31;22.60;41.40
12477;DHT22;6303;51.504;6.300;2023-04-06T07:47:58;22.60;41.40
12477;DHT22;6303;51.504;6.300;2023-04-06T07:50:26;22.60;41.50
12477;DHT22;6303;51.504;6.300;2023-04-06T07:52:56;22.60;41.30
12477;DHT22;6303;51.504;6.300;2023-04-06T07:55:23;22.60;41.30
12477;DHT22;6303;51.504;6.300;2023-04-06T07:57:50;22.70;41.30
12477;DHT22;6303;51.504;6.300;2023-04-06T08:00:18;22.70;41.40
12477;DHT22;6303;51.504;6.300;2023-04-06T08:02:45;22.70;41.30
12477;DHT22;6303;51.504;6.300;2023-04-06T08:05:12;22.70;41.20
12477;DHT22;6303;51.504;6.300;2023-04-06T08:07:39;22.80;41.20
12477;DHT22;6303;51.504;6.300;2023-04-06T08:10:09;22.80;41.20
12477;DHT22;6303;51.504;6.300;2023-04-06T08:12:36;22.90;41.10
12477;DHT22;6303;51.504;6.300;2023-04-06T08:15:04;22.90;41.10
12477;DHT22;6303;51.504;6.300;2023-04-06T08:17:31;22.90;40.90
12477;DHT22;6303;51.504;6.300;2023-04-06T08:19:59;23.00;41.00
12477;DHT22;6303;51.504;6.300;2023-04-06T08:22:27;23.00;40.90
12477;DHT22;6303;51.504;6.300;2023-04-06T08:24:54;23.00;40.90
12477;DHT22;6303;51.504;6.300;2023-04-06T08:27:23;23.00;40.90
12477;DHT22;6303;51.504;6.300;2023-04-06T08:29:50;22.90;41.00
12477;DHT22;6303;51.504;6.300;2023-04-06T08:32:17;23.00;41.00
12477;DHT22;6303;51.504;6.300;2023-04-06T08:34:44;23.00;41.00
12477;DHT22;6303;51.504;6.300;2023-04-06T08:37:11;23.00;41.00
12477;DHT22;6303;51.504;6.300;2023-04-06T08:39:38;22.90;41.00
12477;DHT22;6303;51.504;6.300;2023-04-06T08:42:12;22.90;41.10
12477;DHT22;6303;51.504;6.300;2023-04-06T08:44:44;22.90;41.10
12477;DHT22;6303;51.504;6.300;2023-04-06T08:47:12;22.90;41.10
12477;DHT22;6303;51.504;6.300;2023-04-06T08:49:39;22.90;41.10
12477;DHT22;6303;51.504;6.300;2023-04-06T08:52:07;22.90;41.10
12477;DHT22;6303;51.504;6.300;2023-04-06T08:54:34;22.90;41.10
12477;DHT22;6303;51.504;6.300;2023-04-06T08:57:02;22.90;40.90
12477;DHT22;6303;51.504;6.300;2023-04-06T08:59:31;23.00;41.00
12477;DHT22;6303;51.504;6.300;2023-04-06T09:02:03;22.90;40.90
12477;DHT22;6303;51.504;6.300;2023-04-06T09:04:32;23.00;41.00
12477;DHT22;6303;51.504;6.300;2023-04-06T09:07:00;23.00;41.10
12477;DHT22;6303;51.504;6.300;2023-04-06T09:09:27;23.00;41.10
12477;DHT22;6303;51.504;6.300;2023-04-06T09:11:54;23.00;41.00
12477;DHT22;6303;51.504;6.300;2023-04-06T09:14:34;23.00;41.00
12477;DHT22;6303;51.504;6.300;2023-04-06T09:17:03;23.00;41.00
12477;DHT22;6303;51.504;6.300;2023-04-06T09:19:31;23.00;41.00
12477;DHT22;6303;51.504;6.300;2023-04-06T09:22:02;23.00;41.00
12477;DHT22;6303;51.504;6.300;2023-04-06T09:24:39;23.10;41.00
12477;DHT22;6303;51.504;6.300;2023-04-06T09:27:07;23.20;40.90
12477;DHT22;6303;51.504;6.300;2023-04-06T09:29:34;23.20;40.90
12477;DHT22;6303;51.504;6.300;2023-04-06T09:32:05;23.20;40.80
12477;DHT22;6303;51.504;6.300;2023-04-06T09:34:33;23.20;40.90
12477;DHT22;6303;51.504;6.300;2023-04-06T09:37:00;23.20;40.90
12477;DHT22;6303;51.504;6.300;2023-04-06T09:39:27;23.20;40.70
12477;DHT22;6303;51.504;6.300;2023-04-06T09:41:54;23.30;40.70
12477;DHT22;6303;51.504;6.300;2023-04-06T09:44:21;23.30;40.70
12477;DHT22;6303;51.504;6.300;2023-04-06T09:46:51;23.40;40.70
12477;DHT22;6303;51.504;6.300;2023-04-06T09:49:22;23.50;40.60
12477;DHT22;6303;51.504;6.300;2023-04-06T09:51:54;23.60;40.70
12477;DHT22;6303;51.504;6.300;2023-04-06T09:54:23;23.60;40.50
12477;DHT22;6303;51.504;6.300;2023-04-06T09:57:07;23.60;40.50
12477;DHT22;6303;51.504;6.300;2023-04-06T09:59:43;23.60;40.50
12477;DHT22;6303;51.504;6.300;2023-04-06T10:02:16;23.60;40.60
12477;DHT22;6303;51.504;6.300;2023-04-06T10:04:53;23.50;40.60
12477;DHT22;6303;51.504;6.300;2023-04-06T10:07:22;23.50;40.60
12477;DHT22;6303;51.504;6.300;2023-04-06T10:09:51;23.50;40.60
12477;DHT22;6303;51.504;6.300;2023-04-06T10:12:20;23.50;40.60
12477;DHT22;6303;51.504;6.300;2023-04-06T10:14:48;23.50;40.60
12477;DHT22;6303;51.504;6.300;2023-04-06T10:17:15;23.40;40.70
12477;DHT22;6303;51.504;6.300;2023-04-06T10:19:49;23.40;40.70
12477;DHT22;6303;51.504;6.300;2023-04-06T10:22:22;23.40;40.70
12477;DHT22;6303;51.504;6.300;2023-04-06T10:24:51;23.40;40.70
12477;DHT22;6303;51.504;6.300;2023-04-06T10:27:27;23.40;40.70
12477;DHT22;6303;51.504;6.300;2023-04-06T10:29:54;23.40;40.80
12477;DHT22;6303;51.504;6.300;2023-04-06T10:32:32;23.40;40.90
12477;DHT22;6303;51.504;6.300;2023-04-06T10:35:07;23.40;40.90
12477;DHT22;6303;51.504;6.300;2023-04-06T10:37:46;23.40;41.00
12477;DHT22;6303;51.504;6.300;2023-04-06T10:40:22;23.40;41.10
12477;DHT22;6303;51.504;6.300;2023-04-06T10:42:50;23.40;41.00
12477;DHT22;6303;51.504;6.300;2023-04-06T10:45:22;23.40;41.00
12477;DHT22;6303;51.504;6.300;2023-04-06T10:47:54;23.40;41.10
12477;DHT22;6303;51.504;6.300;2023-04-06T10:50:23;23.40;41.10
12477;DHT22;6303;51.504;6.300;2023-04-06T10:52:59;23.40;41.10
12477;DHT22;6303;51.504;6.300;2023-04-06T10:55:26;23.40;41.10
12477;DHT22;6303;51.504;6.300;2023-04-06T10:57:54;23.40;41.10
12477;DHT22;6303;51.504;6.300;2023-04-06T11:00:22;23.40;41.20
12477;DHT22;6303;51.504;6.300;2023-04-06T11:02:50;23.40;41.20
12477;DHT22;6303;51.504;6.300;2023-04-06T11:05:17;23.40;41.10
12477;DHT22;6303;51.504;6.300;2023-04-06T11:07:45;23.40;41.10
12477;DHT22;6303;51.504;6.300;2023-04-06T11:10:21;23.40;41.10
12477;DHT22;6303;51.504;6.300;2023-04-06T11:12:53;23.50;41.20
12477;DHT22;6303;51.504;6.300;2023-04-06T11:15:20;23.50;41.10
12477;DHT22;6303;51.504;6.300;2023-04-06T11:17:47;23.50;41.80
12477;DHT22;6303;51.504;6.300;2023-04-06T11:20:15;23.60;41.20
12477;DHT22;6303;51.504;6.300;2023-04-06T11:22:51;23.60;41.20
12477;DHT22;6303;51.504;6.300;2023-04-06T11:25:18;23.60;41.00
12477;DHT22;6303;51.504;6.300;2023-04-06T11:27:46;23.60;41.00
12477;DHT22;6303;51.504;6.300;2023-04-06T11:30:14;23.60;41.00
12477;DHT22;6303;51.504;6.300;2023-04-06T11:32:42;23.60;41.10
12477;DHT22;6303;51.504;6.300;2023-04-06T11:35:11;23.70;41.10
12477;DHT22;6303;51.504;6.300;2023-04-06T11:37:39;23.60;41.10
12477;DHT22;6303;51.504;6.300;2023-04-06T11:40:09;23.60;41.10
12477;DHT22;6303;51.504;6.300;2023-04-06T11:42:37;23.60;41.10
12477;DHT22;6303;51.504;6.300;2023-04-06T11:45:06;23.60;41.10
12477;DHT22;6303;51.504;6.300;2023-04-06T11:47:35;23.60;41.20
12477;DHT22;6303;51.504;6.300;2023-04-06T11:50:06;23.50;41.20
12477;DHT22;6303;51.504;6.300;2023-04-06T11:52:34;23.50;41.20
12477;DHT22;6303;51.504;6.300;2023-04-06T11:55:12;23.50;41.20
12477;DHT22;6303;51.504;6.300;2023-04-06T11:57:41;23.60;41.30
12477;DHT22;6303;51.504;6.300;2023-04-06T12:00:09;23.50;41.30
12477;DHT22;6303;51.504;6.300;2023-04-06T12:02:36;23.50;41.90
12477;DHT22;6303;51.504;6.300;2023-04-06T12:05:05;23.50;41.30
12477;DHT22;6303;51.504;6.300;2023-04-06T12:07:32;23.50;41.40
12477;DHT22;6303;51.504;6.300;2023-04-06T12:10:01;23.50;41.40
12477;DHT22;6303;51.504;6.300;2023-04-06T12:12:30;23.50;41.40
12477;DHT22;6303;51.504;6.300;2023-04-06T12:14:57;23.50;41.40
12477;DHT22;6303;51.504;6.300;2023-04-06T12:17:25;23.50;41.40
12477;DHT22;6303;51.504;6.300;2023-04-06T12:19:52;23.50;41.40
12477;DHT22;6303;51.504;6.300;2023-04-06T12:22:19;23.50;41.40
12477;DHT22;6303;51.504;6.300;2023-04-06T12:24:46;23.50;41.40
12477;DHT22;6303;51.504;6.300;2023-04-06T12:27:13;23.50;41.40
12477;DHT22;6303;51.504;6.300;2023-04-06T12:29:42;23.50;41.40
12477;DHT22;6303;51.504;6.300;2023-04-06T12:32:09;23.50;41.40
12477;DHT22;6303;51.504;6.300;2023-04-06T12:34:37;23.50;41.40
12477;DHT22;6303;51.504;6.300;2023-04-06T12:37:04;23.40;41.40
12477;DHT22;6303;51.504;6.300;2023-04-06T12:39:31;23.40;41.50
12477;DHT22;6303;51.504;6.300;2023-04-06T12:41:58;23.40;41.40
12477;DHT22;6303;51.504;6.300;2023-04-06T12:44:25;23.40;41.50
12477;DHT22;6303;51.504;6.300;2023-04-06T12:46:53;23.30;41.50
12477;DHT22;6303;51.504;6.300;2023-04-06T12:49:21;23.30;41.50
12477;DHT22;6303;51.504;6.300;2023-04-06T12:51:48;23.30;41.50
12477;DHT22;6303;51.504;6.300;2023-04-06T12:54:15;23.30;41.50
12477;DHT22;6303;51.504;6.300;2023-04-06T12:56:42;23.30;41.50
12477;DHT22;6303;51.504;6.300;2023-04-06T12:59:09;23.30;41.50
12477;DHT22;6303;51.504;6.300;2023-04-06T13:01:37;23.30;41.60
12477;DHT22;6303;51.504;6.300;2023-04-06T13:04:05;23.30;41.60
12477;DHT22;6303;51.504;6.300;2023-04-06T13:06:32;23.30;41.60
12477;DHT22;6303;51.504;6.300;2023-04-06T13:08:59;23.20;41.60
12477;DHT22;6303;51.504;6.300;2023-04-06T13:11:26;23.30;41.60
12477;DHT22;6303;51.504;6.300;2023-04-06T13:13:54;23.30;42.20
12477;DHT22;6303;51.504;6.300;2023-04-06T13:16:21;23.20;41.60
12477;DHT22;6303;51.504;6.300;2023-04-06T13:18:48;23.20;41.60
12477;DHT22;6303;51.504;6.300;2023-04-06T13:21:17;23.20;41.80
12477;DHT22;6303;51.504;6.300;2023-04-06T13:23:45;23.20;41.70
12477;DHT22;6303;51.504;6.300;2023-04-06T13:26:12;23.20;41.70
12477;DHT22;6303;51.504;6.300;2023-04-06T13:28:40;23.20;41.70
12477;DHT22;6303;51.504;6.300;2023-04-06T13:31:07;23.20;41.70
12477;DHT22;6303;51.504;6.300;2023-04-06T13:33:35;23.10;41.70
12477;DHT22;6303;51.504;6.300;2023-04-06T13:36:02;23.10;41.70
12477;DHT22;6303;51.504;6.300;2023-04-06T13:38:31;23.10;41.80
12477;DHT22;6303;51.504;6.300;2023-04-06T13:40:59;23.10;41.80
12477;DHT22;6303;51.504;6.300;2023-04-06T13:43:26;23.10;41.80
12477;DHT22;6303;51.504;6.300;2023-04-06T13:45:54;23.00;41.80
12477;DHT22;6303;51.504;6.300;2023-04-06T13:48:23;23.00;41.80
12477;DHT22;6303;51.504;6.300;2023-04-06T13:50:51;23.00;41.80
12477;DHT22;6303;51.504;6.300;2023-04-06T13:53:18;23.00;41.80
12477;DHT22;6303;51.504;6.300;2023-04-06T13:55:53;23.00;41.80
12477;DHT22;6303;51.504;6.300;2023-04-06T13:58:20;22.90;41.80
12477;DHT22;6303;51.504;6.300;2023-04-06T14:00:47;22.90;42.00
12477;DHT22;6303;51.504;6.300;2023-04-06T14:03:15;22.90;42.10
12477;DHT22;6303;51.504;6.300;2023-04-06T14:05:42;22.80;42.00
12477;DHT22;6303;51.504;6.300;2023-04-06T14:08:09;22.80;42.10
12477;DHT22;6303;51.504;6.300;2023-04-06T14:10:39;22.80;42.20
12477;DHT22;6303;51.504;6.300;2023-04-06T14:13:09;22.80;42.30
12477;DHT22;6303;51.504;6.300;2023-04-06T14:15:36;22.80;42.30
12477;DHT22;6303;51.504;6.300;2023-04-06T14:18:03;22.70;42.30
12477;DHT22;6303;51.504;6.300;2023-04-06T14:20:31;22.70;42.40
12477;DHT22;6303;51.504;6.300;2023-04-06T14:22:59;22.70;42.40
12477;DHT22;6303;51.504;6.300;2023-04-06T14:25:27;22.70;42.50
12477;DHT22;6303;51.504;6.300;2023-04-06T14:27:54;22.70;42.50
12477;DHT22;6303;51.504;6.300;2023-04-06T14:30:22;22.60;42.50
12477;DHT22;6303;51.504;6.300;2023-04-06T14:32:49;22.60;42.60
12477;DHT22;6303;51.504;6.300;2023-04-06T14:35:16;22.60;42.70
12477;DHT22;6303;51.504;6.300;2023-04-06T14:37:43;22.50;42.80
12477;DHT22;6303;51.504;6.300;2023-04-06T14:40:11;22.50;42.80
12477;DHT22;6303;51.504;6.300;2023-04-06T14:42:38;22.50;42.80
12477;DHT22;6303;51.504;6.300;2023-04-06T14:45:06;22.50;42.90
12477;DHT22;6303;51.504;6.300;2023-04-06T14:47:34;22.50;42.90
12477;DHT22;6303;51.504;6.300;2023-04-06T14:50:01;22.50;43.00
12477;DHT22;6303;51.504;6.300;2023-04-06T14:52:28;22.40;43.00
12477;DHT22;6303;51.504;6.300;2023-04-06T14:54:55;22.40;43.10
12477;DHT22;6303;51.504;6.300;2023-04-06T14:57:23;22.40;43.20
12477;DHT22;6303;51.504;6.300;2023-04-06T14:59:52;22.40;43.30
12477;DHT22;6303;51.504;6.300;2023-04-06T15:02:19;22.40;43.30
12477;DHT22;6303;51.504;6.300;2023-04-06T15:04:48;22.40;43.30
12477;DHT22;6303;51.504;6.300;2023-04-06T15:07:15;22.40;43.40
12477;DHT22;6303;51.504;6.300;2023-04-06T15:09:42;22.40;43.40
12477;DHT22;6303;51.504;6.300;2023-04-06T15:12:09;22.30;43.40
12477;DHT22;6303;51.504;6.300;2023-04-06T15:14:36;22.30;43.50
12477;DHT22;6303;51.504;6.300;2023-04-06T15:17:03;22.30;43.60
12477;DHT22;6303;51.504;6.300;2023-04-06T15:19:30;22.30;43.60
12477;DHT22;6303;51.504;6.300;2023-04-06T15:21:58;22.30;43.70
12477;DHT22;6303;51.504;6.300;2023-04-06T15:24:25;22.20;43.60
12477;DHT22;6303;51.504;6.300;2023-04-06T15:26:52;22.20;43.70
12477;DHT22;6303;51.504;6.300;2023-04-06T15:29:19;22.20;43.70
12477;DHT22;6303;51.504;6.300;2023-04-06T15:31:46;22.20;43.80
12477;DHT22;6303;51.504;6.300;2023-04-06T15:34:14;22.20;43.80
12477;DHT22;6303;51.504;6.300;2023-04-06T15:36:41;22.20;43.80
12477;DHT22;6303;51.504;6.300;2023-04-06T15:39:10;22.20;44.00
12477;DHT22;6303;51.504;6.300;2023-04-06T15:41:38;22.20;44.00
12477;DHT22;6303;51.504;6.300;2023-04-06T15:44:05;22.20;44.00
12477;DHT22;6303;51.504;6.300;2023-04-06T15:46:32;22.20;44.00
12477;DHT22;6303;51.504;6.300;2023-04-06T15:49:00;22.20;44.00
12477;DHT22;6303;51.504;6.300;2023-04-06T15:51:27;22.10;44.00
12477;DHT22;6303;51.504;6.300;2023-04-06T15:53:54;22.10;44.00
12477;DHT22;6303;51.504;6.300;2023-04-06T15:56:23;22.10;44.10